sensor_id;sensor_type;location;lat;lon;timestamp;P1;durP1;ratioP1;P2;durP2;ratioP2
19036;SDS011;9651;49.138;8.900;2022-08-18T00:00:34;5.10;;;4.15;;
19036;SDS011;9651;49.138;8.900;2022-08-18T00:04:36;4.95;;;4.53;;
19036;SDS011;9651;49.138;8.900;2022-08-18T00:08:38;7.07;;;4.32;;
19036;SDS011;9651;49.138;8.900;2022-08-18T00:12:40;8.63;;;4.28;;
19036;SDS011;9651;49.138;8.900;2022-08-18T00:16:44;5.93;;;4.40;;
19036;SDS011;9651;49.138;8.900;2022-08-18T00:20:46;5.22;;;4.40;;
19036;SDS011;9651;49.138;8.900;2022-08-18T00:24:49;6.53;;;5.03;;
19036;SDS011;9651;49.138;8.900;2022-08-18T00:28:53;7.07;;;4.88;;
19036;SDS011;9651;49.138;8.900;2022-08-18T00:32:57;4.82;;;4.40;;
19036;SDS011;9651;49.138;8.900;2022-08-18T00:37:00;7.28;;;4.53;;
19036;SDS011;9651;49.138;8.900;2022-08-18T00:41:02;6.57;;;5.18;;
19036;SDS011;9651;49.138;8.900;2022-08-18T00:45:06;7.10;;;5.22;;
19036;SDS011;9651;49.138;8.900;2022-08-18T00:49:10;5.00;;;4.55;;
19036;SDS011;9651;49.138;8.900;2022-08-18T00:53:16;6.63;;;5.32;;
19036;SDS011;9651;49.138;8.900;2022-08-18T00:57:22;4.90;;;4.50;;
19036;SDS011;9651;49.138;8.900;2022-08-18T01:01:27;5.55;;;4.70;;
19036;SDS011;9651;49.138;8.900;2022-08-18T01:05:34;5.85;;;5.18;;
19036;SDS011;9651;49.138;8.900;2022-08-18T01:09:40;5.28;;;4.65;;
19036;SDS011;9651;49.138;8.900;2022-08-18T01:13:42;5.05;;;4.57;;
19036;SDS011;9651;49.138;8.900;2022-08-18T01:17:44;5.13;;;4.35;;
19036;SDS011;9651;49.138;8.900;2022-08-18T01:22:07;6.20;;;4.88;;
19036;SDS011;9651;49.138;8.900;2022-08-18T01:26:14;6.32;;;4.55;;
19036;SDS011;9651;49.138;8.900;2022-08-18T01:30:18;5.75;;;4.70;;
19036;SDS011;9651;49.138;8.900;2022-08-18T01:34:25;5.55;;;5.05;;
19036;SDS011;9651;49.138;8.900;2022-08-18T01:38:27;6.47;;;4.88;;
19036;SDS011;9651;49.138;8.900;2022-08-18T01:42:32;6.90;;;4.95;;
19036;SDS011;9651;49.138;8.900;2022-08-18T01:46:35;7.28;;;5.10;;
19036;SDS011;9651;49.138;8.900;2022-08-18T01:50:38;6.40;;;5.80;;
19036;SDS011;9651;49.138;8.900;2022-08-18T01:54:43;8.10;;;5.07;;
19036;SDS011;9651;49.138;8.900;2022-08-18T01:58:46;5.28;;;4.78;;
19036;SDS011;9651;49.138;8.900;2022-08-18T02:02:48;6.05;;;4.60;;
19036;SDS011;9651;49.138;8.900;2022-08-18T02:06:51;6.20;;;4.70;;
19036;SDS011;9651;49.138;8.900;2022-08-18T02:10:52;5.20;;;4.70;;
19036;SDS011;9651;49.138;8.900;2022-08-18T02:14:56;5.13;;;4.63;;
19036;SDS011;9651;49.138;8.900;2022-08-18T02:18:58;6.57;;;4.50;;
19036;SDS011;9651;49.138;8.900;2022-08-18T02:23:00;6.97;;;4.25;;
19036;SDS011;9651;49.138;8.900;2022-08-18T02:27:02;5.57;;;4.20;;
19036;SDS011;9651;49.138;8.900;2022-08-18T02:31:07;5.05;;;4.55;;
19036;SDS011;9651;49.138;8.900;2022-08-18T02:35:10;4.85;;;4.32;;
19036;SDS011;9651;49.138;8.900;2022-08-18T02:39:12;4.97;;;4.45;;
19036;SDS011;9651;49.138;8.900;2022-08-18T02:43:14;4.60;;;4.20;;
19036;SDS011;9651;49.138;8.900;2022-08-18T02:47:19;4.78;;;4.30;;
19036;SDS011;9651;49.138;8.900;2022-08-18T02:51:21;4.25;;;3.78;;
19036;SDS011;9651;49.138;8.900;2022-08-18T02:55:23;5.10;;;3.95;;
19036;SDS011;9651;49.138;8.900;2022-08-18T02:59:26;5.20;;;4.18;;
19036;SDS011;9651;49.138;8.900;2022-08-18T03:03:29;4.70;;;4.20;;
19036;SDS011;9651;49.138;8.900;2022-08-18T03:07:31;6.05;;;4.47;;
19036;SDS011;9651;49.138;8.900;2022-08-18T03:11:33;5.75;;;4.22;;
19036;SDS011;9651;49.138;8.900;2022-08-18T03:15:36;5.72;;;4.20;;
19036;SDS011;9651;49.138;8.900;2022-08-18T03:19:39;4.43;;;4.00;;
19036;SDS011;9651;49.138;8.900;2022-08-18T03:23:44;4.68;;;3.95;;
19036;SDS011;9651;49.138;8.900;2022-08-18T03:27:46;5.60;;;4.20;;
19036;SDS011;9651;49.138;8.900;2022-08-18T03:31:48;4.75;;;4.30;;
19036;SDS011;9651;49.138;8.900;2022-08-18T03:35:51;4.75;;;3.70;;
19036;SDS011;9651;49.138;8.900;2022-08-18T03:39:53;4.90;;;4.00;;
19036;SDS011;9651;49.138;8.900;2022-08-18T03:43:55;4.93;;;4.20;;
19036;SDS011;9651;49.138;8.900;2022-08-18T03:47:57;4.80;;;3.90;;
19036;SDS011;9651;49.138;8.900;2022-08-18T03:52:01;4.97;;;4.03;;
19036;SDS011;9651;49.138;8.900;2022-08-18T03:56:05;4.57;;;3.85;;
19036;SDS011;9651;49.138;8.900;2022-08-18T04:00:09;5.63;;;4.45;;
19036;SDS011;9651;49.138;8.900;2022-08-18T04:04:13;6.88;;;4.40;;
19036;SDS011;9651;49.138;8.900;2022-08-18T04:08:19;5.20;;;4.55;;
19036;SDS011;9651;49.138;8.900;2022-08-18T04:12:21;7.07;;;5.25;;
19036;SDS011;9651;49.138;8.900;2022-08-18T04:16:23;5.25;;;4.57;;
19036;SDS011;9651;49.138;8.900;2022-08-18T04:20:25;6.13;;;4.95;;
19036;SDS011;9651;49.138;8.900;2022-08-18T04:24:29;6.60;;;5.38;;
19036;SDS011;9651;49.138;8.900;2022-08-18T04:28:33;5.35;;;4.85;;
19036;SDS011;9651;49.138;8.900;2022-08-18T04:32:35;6.22;;;5.18;;
19036;SDS011;9651;49.138;8.900;2022-08-18T04:36:38;5.10;;;4.57;;
19036;SDS011;9651;49.138;8.900;2022-08-18T04:40:42;5.40;;;4.70;;
19036;SDS011;9651;49.138;8.900;2022-08-18T04:44:44;7.03;;;4.43;;
19036;SDS011;9651;49.138;8.900;2022-08-18T04:48:46;5.30;;;4.75;;
19036;SDS011;9651;49.138;8.900;2022-08-18T04:52:48;5.13;;;4.63;;
19036;SDS011;9651;49.138;8.900;2022-08-18T04:57:10;5.28;;;4.22;;
19036;SDS011;9651;49.138;8.900;2022-08-18T05:01:14;4.93;;;4.35;;
19036;SDS011;9651;49.138;8.900;2022-08-18T05:05:16;6.63;;;4.95;;
19036;SDS011;9651;49.138;8.900;2022-08-18T05:09:18;5.60;;;5.07;;
19036;SDS011;9651;49.138;8.900;2022-08-18T05:13:22;5.93;;;4.70;;
19036;SDS011;9651;49.138;8.900;2022-08-18T05:17:25;5.40;;;4.75;;
19036;SDS011;9651;49.138;8.900;2022-08-18T05:21:27;5.40;;;4.05;;
19036;SDS011;9651;49.138;8.900;2022-08-18T05:25:29;5.95;;;5.00;;
19036;SDS011;9651;49.138;8.900;2022-08-18T05:29:32;5.13;;;4.63;;
19036;SDS011;9651;49.138;8.900;2022-08-18T05:33:35;4.30;;;3.90;;
19036;SDS011;9651;49.138;8.900;2022-08-18T05:37:41;4.40;;;4.00;;
19036;SDS011;9651;49.138;8.900;2022-08-18T05:41:51;3.55;;;3.25;;
19036;SDS011;9651;49.138;8.900;2022-08-18T05:46:00;4.95;;;3.90;;
19036;SDS011;9651;49.138;8.900;2022-08-18T05:50:07;6.60;;;3.90;;
19036;SDS011;9651;49.138;8.900;2022-08-18T05:54:12;4.90;;;4.03;;
19036;SDS011;9651;49.138;8.900;2022-08-18T05:58:34;4.38;;;3.85;;
19036;SDS011;9651;49.138;8.900;2022-08-18T06:02:43;5.40;;;4.72;;
19036;SDS011;9651;49.138;8.900;2022-08-18T06:06:52;5.10;;;4.45;;
19036;SDS011;9651;49.138;8.900;2022-08-18T06:10:57;5.28;;;4.82;;
19036;SDS011;9651;49.138;8.900;2022-08-18T06:15:02;6.97;;;4.50;;
19036;SDS011;9651;49.138;8.900;2022-08-18T06:19:14;5.43;;;4.70;;
19036;SDS011;9651;49.138;8.900;2022-08-18T06:23:28;5.93;;;5.07;;
19036;SDS011;9651;49.138;8.900;2022-08-18T06:27:37;4.82;;;4.32;;
19036;SDS011;9651;49.138;8.900;2022-08-18T06:31:47;5.65;;;4.88;;
19036;SDS011;9651;49.138;8.900;2022-08-18T06:36:02;5.25;;;4.75;;
19036;SDS011;9651;49.138;8.900;2022-08-18T06:40:12;4.95;;;4.43;;
19036;SDS011;9651;49.138;8.900;2022-08-18T06:44:15;6.57;;;5.40;;
19036;SDS011;9651;49.138;8.900;2022-08-18T06:48:22;5.78;;;4.82;;
19036;SDS011;9651;49.138;8.900;2022-08-18T06:52:34;5.63;;;4.80;;
19036;SDS011;9651;49.138;8.900;2022-08-18T06:56:48;6.75;;;5.13;;
19036;SDS011;9651;49.138;8.900;2022-08-18T07:00:55;5.35;;;4.85;;
19036;SDS011;9651;49.138;8.900;2022-08-18T07:05:00;5.82;;;4.88;;
19036;SDS011;9651;49.138;8.900;2022-08-18T07:09:19;5.22;;;4.72;;
19036;SDS011;9651;49.138;8.900;2022-08-18T07:13:23;5.38;;;4.88;;
19036;SDS011;9651;49.138;8.900;2022-08-18T07:17:27;5.05;;;4.50;;
19036;SDS011;9651;49.138;8.900;2022-08-18T07:21:32;6.03;;;5.43;;
19036;SDS011;9651;49.138;8.900;2022-08-18T07:25:38;6.50;;;4.95;;
19036;SDS011;9651;49.138;8.900;2022-08-18T07:29:58;8.18;;;4.82;;
19036;SDS011;9651;49.138;8.900;2022-08-18T07:34:03;5.22;;;4.20;;
19036;SDS011;9651;49.138;8.900;2022-08-18T07:38:10;8.77;;;4.75;;
19036;SDS011;9651;49.138;8.900;2022-08-18T07:42:20;5.93;;;5.32;;
19036;SDS011;9651;49.138;8.900;2022-08-18T07:46:34;5.72;;;4.78;;
19036;SDS011;9651;49.138;8.900;2022-08-18T07:50:44;6.72;;;5.80;;
19036;SDS011;9651;49.138;8.900;2022-08-18T07:54:53;5.40;;;4.90;;
19036;SDS011;9651;49.138;8.900;2022-08-18T07:59:07;6.80;;;5.55;;
19036;SDS011;9651;49.138;8.900;2022-08-18T08:03:21;7.60;;;5.43;;
19036;SDS011;9651;49.138;8.900;2022-08-18T08:07:33;6.82;;;5.85;;
19036;SDS011;9651;49.138;8.900;2022-08-18T08:11:42;7.35;;;5.10;;
19036;SDS011;9651;49.138;8.900;2022-08-18T08:16:01;6.70;;;5.53;;
19036;SDS011;9651;49.138;8.900;2022-08-18T08:20:08;5.93;;;5.40;;
19036;SDS011;9651;49.138;8.900;2022-08-18T08:24:19;6.55;;;5.95;;
19036;SDS011;9651;49.138;8.900;2022-08-18T08:28:29;6.10;;;5.50;;
19036;SDS011;9651;49.138;8.900;2022-08-18T08:32:43;6.05;;;5.55;;
19036;SDS011;9651;49.138;8.900;2022-08-18T08:36:57;9.30;;;5.60;;
19036;SDS011;9651;49.138;8.900;2022-08-18T08:41:03;6.60;;;5.60;;
19036;SDS011;9651;49.138;8.900;2022-08-18T08:45:09;6.75;;;5.72;;
19036;SDS011;9651;49.138;8.900;2022-08-18T08:49:26;6.93;;;6.32;;
19036;SDS011;9651;49.138;8.900;2022-08-18T08:53:34;8.82;;;6.43;;
19036;SDS011;9651;49.138;8.900;2022-08-18T08:57:40;7.22;;;5.97;;
19036;SDS011;9651;49.138;8.900;2022-08-18T09:01:50;7.18;;;6.28;;
19036;SDS011;9651;49.138;8.900;2022-08-18T09:06:02;6.63;;;6.03;;
19036;SDS011;9651;49.138;8.900;2022-08-18T09:15:06;7.57;;;6.72;;
19036;SDS011;9651;49.138;8.900;2022-08-18T09:24:05;8.05;;;7.28;;
19036;SDS011;9651;49.138;8.900;2022-08-18T09:28:18;7.68;;;6.93;;
19036;SDS011;9651;49.138;8.900;2022-08-18T09:32:29;8.55;;;7.75;;
19036;SDS011;9651;49.138;8.900;2022-08-18T09:36:52;7.70;;;6.80;;
19036;SDS011;9651;49.138;8.900;2022-08-18T09:41:06;7.13;;;6.45;;
19036;SDS011;9651;49.138;8.900;2022-08-18T09:50:02;9.18;;;7.25;;
19036;SDS011;9651;49.138;8.900;2022-08-18T09:54:47;8.23;;;6.90;;
19036;SDS011;9651;49.138;8.900;2022-08-18T09:58:53;7.53;;;6.07;;
19036;SDS011;9651;49.138;8.900;2022-08-18T10:03:01;6.82;;;6.25;;
19036;SDS011;9651;49.138;8.900;2022-08-18T10:07:20;6.55;;;5.95;;
19036;SDS011;9651;49.138;8.900;2022-08-18T10:11:36;9.80;;;6.53;;
19036;SDS011;9651;49.138;8.900;2022-08-18T10:15:48;7.72;;;6.93;;
19036;SDS011;9651;49.138;8.900;2022-08-18T10:20:06;8.13;;;7.32;;
19036;SDS011;9651;49.138;8.900;2022-08-18T10:24:22;8.73;;;6.95;;
19036;SDS011;9651;49.138;8.900;2022-08-18T10:32:54;7.28;;;6.68;;
19036;SDS011;9651;49.138;8.900;2022-08-18T10:36:57;7.57;;;6.20;;
19036;SDS011;9651;49.138;8.900;2022-08-18T10:41:03;7.88;;;7.07;;
19036;SDS011;9651;49.138;8.900;2022-08-18T10:45:09;10.68;;;6.55;;
19036;SDS011;9651;49.138;8.900;2022-08-18T10:49:17;7.97;;;7.13;;
19036;SDS011;9651;49.138;8.900;2022-08-18T10:53:25;8.48;;;7.45;;
19036;SDS011;9651;49.138;8.900;2022-08-18T10:57:42;10.18;;;6.97;;
19036;SDS011;9651;49.138;8.900;2022-08-18T11:02:15;9.88;;;7.82;;
19036;SDS011;9651;49.138;8.900;2022-08-18T11:06:29;8.25;;;7.55;;
19036;SDS011;9651;49.138;8.900;2022-08-18T11:10:41;9.10;;;8.30;;
19036;SDS011;9651;49.138;8.900;2022-08-18T11:15:00;8.82;;;8.00;;
19036;SDS011;9651;49.138;8.900;2022-08-18T11:19:10;7.65;;;6.95;;
19036;SDS011;9651;49.138;8.900;2022-08-18T11:23:16;7.75;;;7.15;;
19036;SDS011;9651;49.138;8.900;2022-08-18T11:27:19;8.32;;;7.50;;
19036;SDS011;9651;49.138;8.900;2022-08-18T11:31:24;9.02;;;8.23;;
19036;SDS011;9651;49.138;8.900;2022-08-18T11:35:28;9.10;;;8.20;;
19036;SDS011;9651;49.138;8.900;2022-08-18T11:39:31;9.18;;;8.38;;
19036;SDS011;9651;49.138;8.900;2022-08-18T11:43:34;8.30;;;7.55;;
19036;SDS011;9651;49.138;8.900;2022-08-18T11:47:47;8.60;;;6.85;;
19036;SDS011;9651;49.138;8.900;2022-08-18T11:52:15;8.50;;;7.70;;
19036;SDS011;9651;49.138;8.900;2022-08-18T11:56:21;7.32;;;6.68;;
19036;SDS011;9651;49.138;8.900;2022-08-18T12:04:59;7.95;;;7.05;;
19036;SDS011;9651;49.138;8.900;2022-08-18T12:09:03;6.55;;;5.95;;
19036;SDS011;9651;49.138;8.900;2022-08-18T12:13:07;6.75;;;6.13;;
19036;SDS011;9651;49.138;8.900;2022-08-18T12:17:09;6.18;;;5.68;;
19036;SDS011;9651;49.138;8.900;2022-08-18T12:21:13;7.32;;;6.72;;
19036;SDS011;9651;49.138;8.900;2022-08-18T12:25:15;6.68;;;6.10;;
19036;SDS011;9651;49.138;8.900;2022-08-18T12:29:19;5.88;;;5.38;;
19036;SDS011;9651;49.138;8.900;2022-08-18T12:33:22;5.97;;;5.38;;
19036;SDS011;9651;49.138;8.900;2022-08-18T12:37:26;7.50;;;7.00;;
19036;SDS011;9651;49.138;8.900;2022-08-18T12:41:29;5.53;;;5.13;;
19036;SDS011;9651;49.138;8.900;2022-08-18T12:45:31;6.78;;;5.90;;
19036;SDS011;9651;49.138;8.900;2022-08-18T12:49:33;5.82;;;5.32;;
19036;SDS011;9651;49.138;8.900;2022-08-18T12:53:36;6.10;;;5.60;;
19036;SDS011;9651;49.138;8.900;2022-08-18T12:57:38;6.20;;;5.68;;
19036;SDS011;9651;49.138;8.900;2022-08-18T13:01:40;6.47;;;5.97;;
19036;SDS011;9651;49.138;8.900;2022-08-18T13:05:42;6.03;;;5.43;;
19036;SDS011;9651;49.138;8.900;2022-08-18T13:09:45;6.47;;;5.82;;
19036;SDS011;9651;49.138;8.900;2022-08-18T13:13:48;6.97;;;6.32;;
19036;SDS011;9651;49.138;8.900;2022-08-18T13:17:50;6.38;;;5.88;;
19036;SDS011;9651;49.138;8.900;2022-08-18T13:21:53;6.22;;;5.72;;
19036;SDS011;9651;49.138;8.900;2022-08-18T13:25:56;5.93;;;5.32;;
19036;SDS011;9651;49.138;8.900;2022-08-18T13:30:00;6.35;;;5.82;;
19036;SDS011;9651;49.138;8.900;2022-08-18T13:34:02;6.00;;;5.60;;
19036;SDS011;9651;49.138;8.900;2022-08-18T13:38:06;6.35;;;5.78;;
19036;SDS011;9651;49.138;8.900;2022-08-18T13:42:09;6.43;;;5.93;;
19036;SDS011;9651;49.138;8.900;2022-08-18T13:46:13;6.90;;;6.40;;
19036;SDS011;9651;49.138;8.900;2022-08-18T13:50:17;5.85;;;5.30;;
19036;SDS011;9651;49.138;8.900;2022-08-18T13:54:20;8.65;;;5.15;;
19036;SDS011;9651;49.138;8.900;2022-08-18T13:58:26;6.15;;;5.32;;
19036;SDS011;9651;49.138;8.900;2022-08-18T14:02:29;6.10;;;5.60;;
19036;SDS011;9651;49.138;8.900;2022-08-18T14:06:31;6.20;;;5.60;;
19036;SDS011;9651;49.138;8.900;2022-08-18T14:10:33;6.10;;;5.60;;
19036;SDS011;9651;49.138;8.900;2022-08-18T14:14:37;7.65;;;6.72;;
19036;SDS011;9651;49.138;8.900;2022-08-18T14:18:39;6.47;;;5.88;;
19036;SDS011;9651;49.138;8.900;2022-08-18T14:22:41;6.38;;;5.78;;
19036;SDS011;9651;49.138;8.900;2022-08-18T14:27:01;6.78;;;6.20;;
19036;SDS011;9651;49.138;8.900;2022-08-18T14:31:04;6.05;;;5.55;;
19036;SDS011;9651;49.138;8.900;2022-08-18T14:35:07;6.20;;;5.60;;
19036;SDS011;9651;49.138;8.900;2022-08-18T14:39:10;6.70;;;6.05;;
19036;SDS011;9651;49.138;8.900;2022-08-18T14:43:13;7.10;;;6.50;;
19036;SDS011;9651;49.138;8.900;2022-08-18T14:47:18;7.07;;;6.45;;
19036;SDS011;9651;49.138;8.900;2022-08-18T14:51:20;6.35;;;5.85;;
19036;SDS011;9651;49.138;8.900;2022-08-18T14:55:22;9.50;;;8.07;;
19036;SDS011;9651;49.138;8.900;2022-08-18T14:59:24;6.78;;;6.18;;
19036;SDS011;9651;49.138;8.900;2022-08-18T15:03:29;6.35;;;5.75;;
19036;SDS011;9651;49.138;8.900;2022-08-18T15:07:31;7.63;;;6.93;;
19036;SDS011;9651;49.138;8.900;2022-08-18T15:11:33;8.38;;;6.28;;
19036;SDS011;9651;49.138;8.900;2022-08-18T15:15:35;7.05;;;6.35;;
19036;SDS011;9651;49.138;8.900;2022-08-18T15:19:39;7.28;;;6.57;;
19036;SDS011;9651;49.138;8.900;2022-08-18T15:23:42;7.20;;;6.50;;
19036;SDS011;9651;49.138;8.900;2022-08-18T15:28:02;7.68;;;6.47;;
19036;SDS011;9651;49.138;8.900;2022-08-18T15:32:05;7.20;;;6.50;;
19036;SDS011;9651;49.138;8.900;2022-08-18T15:36:08;7.00;;;6.30;;
19036;SDS011;9651;49.138;8.900;2022-08-18T15:40:12;7.07;;;6.38;;
19036;SDS011;9651;49.138;8.900;2022-08-18T15:44:18;7.93;;;6.75;;
19036;SDS011;9651;49.138;8.900;2022-08-18T15:48:22;7.50;;;6.85;;
19036;SDS011;9651;49.138;8.900;2022-08-18T15:52:26;7.60;;;6.90;;
19036;SDS011;9651;49.138;8.900;2022-08-18T15:56:28;7.75;;;7.05;;
19036;SDS011;9651;49.138;8.900;2022-08-18T16:00:31;8.10;;;7.40;;
19036;SDS011;9651;49.138;8.900;2022-08-18T16:04:33;7.32;;;6.63;;
19036;SDS011;9651;49.138;8.900;2022-08-18T16:08:40;7.13;;;6.50;;
19036;SDS011;9651;49.138;8.900;2022-08-18T16:12:42;6.82;;;6.22;;
19036;SDS011;9651;49.138;8.900;2022-08-18T16:16:44;6.88;;;6.28;;
19036;SDS011;9651;49.138;8.900;2022-08-18T16:20:46;7.63;;;6.80;;
19036;SDS011;9651;49.138;8.900;2022-08-18T16:24:50;7.18;;;6.57;;
19036;SDS011;9651;49.138;8.900;2022-08-18T16:28:51;7.63;;;6.68;;
19036;SDS011;9651;49.138;8.900;2022-08-18T16:32:54;8.32;;;7.53;;
19036;SDS011;9651;49.138;8.900;2022-08-18T16:37:00;7.20;;;6.55;;
19036;SDS011;9651;49.138;8.900;2022-08-18T16:41:04;7.18;;;6.53;;
19036;SDS011;9651;49.138;8.900;2022-08-18T16:45:08;8.23;;;7.50;;
19036;SDS011;9651;49.138;8.900;2022-08-18T16:49:11;8.73;;;7.82;;
19036;SDS011;9651;49.138;8.900;2022-08-18T16:53:13;9.02;;;8.25;;
19036;SDS011;9651;49.138;8.900;2022-08-18T16:57:17;9.38;;;8.38;;
19036;SDS011;9651;49.138;8.900;2022-08-18T17:01:40;10.13;;;9.10;;
19036;SDS011;9651;49.138;8.900;2022-08-18T17:06:00;9.52;;;8.73;;
19036;SDS011;9651;49.138;8.900;2022-08-18T17:10:05;10.25;;;9.25;;
19036;SDS011;9651;49.138;8.900;2022-08-18T17:14:09;10.25;;;9.32;;
19036;SDS011;9651;49.138;8.900;2022-08-18T17:18:11;10.32;;;9.40;;
19036;SDS011;9651;49.138;8.900;2022-08-18T17:22:13;10.90;;;9.25;;
19036;SDS011;9651;49.138;8.900;2022-08-18T17:26:16;11.75;;;10.55;;
19036;SDS011;9651;49.138;8.900;2022-08-18T17:30:25;10.50;;;9.45;;
19036;SDS011;9651;49.138;8.900;2022-08-18T17:34:32;9.40;;;8.55;;
19036;SDS011;9651;49.138;8.900;2022-08-18T17:38:37;9.60;;;8.48;;
19036;SDS011;9651;49.138;8.900;2022-08-18T17:42:45;10.57;;;9.68;;
19036;SDS011;9651;49.138;8.900;2022-08-18T17:46:50;11.35;;;10.23;;
19036;SDS011;9651;49.138;8.900;2022-08-18T17:50:57;10.82;;;9.27;;
19036;SDS011;9651;49.138;8.900;2022-08-18T17:55:21;10.75;;;9.85;;
19036;SDS011;9651;49.138;8.900;2022-08-18T17:59:30;9.77;;;8.88;;
19036;SDS011;9651;49.138;8.900;2022-08-18T18:03:38;11.40;;;10.30;;
19036;SDS011;9651;49.138;8.900;2022-08-18T18:07:51;10.25;;;9.25;;
19036;SDS011;9651;49.138;8.900;2022-08-18T18:11:55;11.07;;;9.70;;
19036;SDS011;9651;49.138;8.900;2022-08-18T18:15:59;10.57;;;9.57;;
19036;SDS011;9651;49.138;8.900;2022-08-18T18:20:23;10.60;;;9.50;;
19036;SDS011;9651;49.138;8.900;2022-08-18T18:24:37;11.23;;;9.20;;
19036;SDS011;9651;49.138;8.900;2022-08-18T18:28:49;10.57;;;9.40;;
19036;SDS011;9651;49.138;8.900;2022-08-18T18:32:54;11.88;;;10.68;;
19036;SDS011;9651;49.138;8.900;2022-08-18T18:37:00;11.13;;;10.10;;
19036;SDS011;9651;49.138;8.900;2022-08-18T18:41:19;11.57;;;9.80;;
19036;SDS011;9651;49.138;8.900;2022-08-18T18:45:27;12.13;;;9.45;;
19036;SDS011;9651;49.138;8.900;2022-08-18T18:49:33;10.93;;;9.75;;
19036;SDS011;9651;49.138;8.900;2022-08-18T18:53:46;10.38;;;9.38;;
19036;SDS011;9651;49.138;8.900;2022-08-18T18:57:58;10.32;;;9.32;;
19036;SDS011;9651;49.138;8.900;2022-08-18T19:02:13;9.90;;;8.93;;
19036;SDS011;9651;49.138;8.900;2022-08-18T19:06:23;10.25;;;9.25;;
19036;SDS011;9651;49.138;8.900;2022-08-18T19:10:32;10.10;;;9.20;;
19036;SDS011;9651;49.138;8.900;2022-08-18T19:14:38;11.30;;;8.95;;
19036;SDS011;9651;49.138;8.900;2022-08-18T19:18:46;10.70;;;9.70;;
19036;SDS011;9651;49.138;8.900;2022-08-18T19:22:52;9.70;;;8.70;;
19036;SDS011;9651;49.138;8.900;2022-08-18T19:27:00;9.82;;;8.88;;
19036;SDS011;9651;49.138;8.900;2022-08-18T19:31:14;9.95;;;9.05;;
19036;SDS011;9651;49.138;8.900;2022-08-18T19:35:20;10.05;;;9.05;;
19036;SDS011;9651;49.138;8.900;2022-08-18T19:39:31;11.88;;;8.95;;
19036;SDS011;9651;49.138;8.900;2022-08-18T19:43:46;12.52;;;9.00;;
19036;SDS011;9651;49.138;8.900;2022-08-18T19:47:56;9.50;;;8.60;;
19036;SDS011;9651;49.138;8.900;2022-08-18T19:52:04;11.10;;;8.85;;
19036;SDS011;9651;49.138;8.900;2022-08-18T19:56:26;10.48;;;9.27;;
19036;SDS011;9651;49.138;8.900;2022-08-18T20:00:42;10.40;;;8.25;;
19036;SDS011;9651;49.138;8.900;2022-08-18T20:04:55;10.75;;;8.73;;
19036;SDS011;9651;49.138;8.900;2022-08-18T20:09:23;9.77;;;8.77;;
19036;SDS011;9651;49.138;8.900;2022-08-18T20:13:38;10.60;;;9.40;;
19036;SDS011;9651;49.138;8.900;2022-08-18T20:18:00;11.77;;;9.52;;
19036;SDS011;9651;49.138;8.900;2022-08-18T20:22:05;9.82;;;8.32;;
19036;SDS011;9651;49.138;8.900;2022-08-18T20:26:14;10.07;;;8.38;;
19036;SDS011;9651;49.138;8.900;2022-08-18T20:30:55;8.95;;;8.00;;
19036;SDS011;9651;49.138;8.900;2022-08-18T20:35:15;9.82;;;8.85;;
19036;SDS011;9651;49.138;8.900;2022-08-18T20:39:40;9.88;;;8.98;;
19036;SDS011;9651;49.138;8.900;2022-08-18T20:43:47;9.57;;;8.32;;
19036;SDS011;9651;49.138;8.900;2022-08-18T20:52:17;10.65;;;8.90;;
19036;SDS011;9651;49.138;8.900;2022-08-18T20:56:28;12.60;;;9.73;;
19036;SDS011;9651;49.138;8.900;2022-08-18T21:00:40;10.07;;;9.07;;
19036;SDS011;9651;49.138;8.900;2022-08-18T21:04:46;10.63;;;9.35;;
19036;SDS011;9651;49.138;8.900;2022-08-18T21:08:49;11.55;;;9.93;;
19036;SDS011;9651;49.138;8.900;2022-08-18T21:12:54;11.77;;;9.80;;
19036;SDS011;9651;49.138;8.900;2022-08-18T21:17:00;11.13;;;9.98;;
19036;SDS011;9651;49.138;8.900;2022-08-18T21:21:17;11.25;;;9.65;;
19036;SDS011;9651;49.138;8.900;2022-08-18T21:25:23;11.30;;;9.55;;
19036;SDS011;9651;49.138;8.900;2022-08-18T21:29:25;11.07;;;9.93;;
19036;SDS011;9651;49.138;8.900;2022-08-18T21:33:30;11.90;;;10.15;;
19036;SDS011;9651;49.138;8.900;2022-08-18T21:37:38;12.98;;;9.27;;
19036;SDS011;9651;49.138;8.900;2022-08-18T21:41:42;10.90;;;9.35;;
19036;SDS011;9651;49.138;8.900;2022-08-18T21:45:48;12.48;;;10.65;;
19036;SDS011;9651;49.138;8.900;2022-08-18T21:50:03;12.27;;;10.05;;
19036;SDS011;9651;49.138;8.900;2022-08-18T21:54:08;10.65;;;9.52;;
19036;SDS011;9651;49.138;8.900;2022-08-18T21:58:16;11.70;;;10.32;;
19036;SDS011;9651;49.138;8.900;2022-08-18T22:02:22;14.95;;;10.55;;
19036;SDS011;9651;49.138;8.900;2022-08-18T22:06:28;12.85;;;10.23;;
19036;SDS011;9651;49.138;8.900;2022-08-18T22:10:35;12.90;;;11.00;;
19036;SDS011;9651;49.138;8.900;2022-08-18T22:15:03;13.13;;;11.30;;
19036;SDS011;9651;49.138;8.900;2022-08-18T22:19:08;12.10;;;10.75;;
19036;SDS011;9651;49.138;8.900;2022-08-18T22:23:29;11.57;;;10.30;;
19036;SDS011;9651;49.138;8.900;2022-08-18T22:27:53;16.85;;;11.25;;
19036;SDS011;9651;49.138;8.900;2022-08-18T22:31:58;14.23;;;10.85;;
19036;SDS011;9651;49.138;8.900;2022-08-18T22:36:03;13.90;;;11.18;;
19036;SDS011;9651;49.138;8.900;2022-08-18T22:40:08;13.77;;;11.13;;
19036;SDS011;9651;49.138;8.900;2022-08-18T22:44:12;14.18;;;11.45;;
19036;SDS011;9651;49.138;8.900;2022-08-18T22:48:14;14.52;;;11.27;;
19036;SDS011;9651;49.138;8.900;2022-08-18T22:52:17;13.05;;;11.10;;
19036;SDS011;9651;49.138;8.900;2022-08-18T22:56:23;14.50;;;11.25;;
19036;SDS011;9651;49.138;8.900;2022-08-18T23:00:25;11.88;;;10.27;;
19036;SDS011;9651;49.138;8.900;2022-08-18T23:04:27;15.63;;;11.27;;
19036;SDS011;9651;49.138;8.900;2022-08-18T23:08:30;12.63;;;10.55;;
19036;SDS011;9651;49.138;8.900;2022-08-18T23:12:33;11.45;;;10.25;;
19036;SDS011;9651;49.138;8.900;2022-08-18T23:16:35;13.35;;;10.27;;
19036;SDS011;9651;49.138;8.900;2022-08-18T23:20:37;18.65;;;10.98;;
19036;SDS011;9651;49.138;8.900;2022-08-18T23:24:39;12.60;;;10.68;;
19036;SDS011;9651;49.138;8.900;2022-08-18T23:28:42;13.65;;;11.07;;
19036;SDS011;9651;49.138;8.900;2022-08-18T23:32:45;11.65;;;10.38;;
19036;SDS011;9651;49.138;8.900;2022-08-18T23:36:50;15.63;;;11.00;;
19036;SDS011;9651;49.138;8.900;2022-08-18T23:40:54;15.43;;;11.48;;
19036;SDS011;9651;49.138;8.900;2022-08-18T23:44:58;13.35;;;11.02;;
19036;SDS011;9651;49.138;8.900;2022-08-18T23:49:03;16.52;;;11.18;;
19036;SDS011;9651;49.138;8.900;2022-08-18T23:53:05;12.85;;;10.60;;
19036;SDS011;9651;49.138;8.900;2022-08-18T23:57:08;14.23;;;10.93;;
